Time;durP1;ratioP1;P1;durP2;ratioP2;P2;SDS_P1;SDS_P2;PMS_P1;PMS_P2;Temp;Humidity;BMP_temperature;BMP_pressure;BME280_temperature;BME280_humidity;BME280_pressure;Samples;Min_cycle;Max_cycle;Signal;HPM_P1;HPM_P2
2022/10/11 00:01:50;;;;;;;20.25;13.13;;;;;;;;;;4992551;28;20359;-73
2022/10/11 00:04:16;;;;;;;20.97;12.80;;;;;;;;;;5008269;28;20030;-73
2022/10/11 00:06:42;;;;;;;18.33;11.98;;;;;;;;;;4993792;28;20872;-72
2022/10/11 00:09:10;;;;;;;23.00;12.68;;;;;;;;;;5008550;28;20121;-71
2022/10/11 00:11:35;;;;;;;21.65;12.23;;;;;;;;;;4994296;28;20563;-72
2022/10/11 00:14:00;;;;;;;17.37;12.20;;;;;;;;;;5008547;28;20034;-73
2022/10/11 00:16:26;;;;;;;21.20;11.63;;;;;;;;;;5008128;28;20397;-72
2022/10/11 00:18:51;;;;;;;19.43;11.90;;;;;;;;;;4992613;28;20276;-73
2022/10/11 00:21:16;;;;;;;19.93;11.43;;;;;;;;;;4992914;28;20034;-72
2022/10/11 00:23:42;;;;;;;18.08;11.48;;;;;;;;;;4992584;28;20026;-73
2022/10/11 00:26:08;;;;;;;18.05;12.38;;;;;;;;;;4991847;28;20415;-73
2022/10/11 00:28:34;;;;;;;21.83;11.85;;;;;;;;;;5007338;28;20436;-72
2022/10/11 00:30:59;;;;;;;20.88;12.43;;;;;;;;;;4997588;28;20034;-73
2022/10/11 00:33:25;;;;;;;20.63;11.80;;;;;;;;;;5007526;28;20085;-73
2022/10/11 00:35:50;;;;;;;17.80;11.73;;;;;;;;;;5007858;28;20037;-73
2022/10/11 00:38:16;;;;;;;28.17;11.10;;;;;;;;;;4992763;28;20041;-72
2022/10/11 00:40:41;;;;;;;17.33;11.63;;;;;;;;;;4990304;28;20515;-72
2022/10/11 00:43:17;;;;;;;17.67;11.73;;;;;;;;;;4990253;28;20026;-73
2022/10/11 00:46:02;;;;;;;18.65;11.40;;;;;;;;;;4989718;28;20034;-73
2022/10/11 00:48:32;;;;;;;17.85;11.48;;;;;;;;;;4989445;28;20547;-73
2022/10/11 00:50:58;;;;;;;17.85;11.05;;;;;;;;;;4992526;28;20034;-73
2022/10/11 00:53:24;;;;;;;19.05;12.05;;;;;;;;;;4991067;28;20039;-73
2022/10/11 00:55:51;;;;;;;21.02;12.35;;;;;;;;;;4992162;28;20041;-72
2022/10/11 00:58:17;;;;;;;19.98;12.40;;;;;;;;;;4991528;28;20397;-73
2022/10/11 01:00:43;;;;;;;22.17;12.38;;;;;;;;;;4992354;28;20026;-72
2022/10/11 01:03:08;;;;;;;17.27;11.65;;;;;;;;;;4994397;28;20037;-73
2022/10/11 01:05:35;;;;;;;17.73;12.20;;;;;;;;;;4993341;28;20112;-73
2022/10/11 01:08:01;;;;;;;16.88;11.77;;;;;;;;;;4992919;28;20279;-72
2022/10/11 01:10:27;;;;;;;17.75;11.35;;;;;;;;;;4993392;28;20389;-73
2022/10/11 01:12:52;;;;;;;20.02;12.15;;;;;;;;;;4996887;28;20034;-73
2022/10/11 01:15:24;;;;;;;20.17;11.40;;;;;;;;;;4993565;28;20056;-73
2022/10/11 01:17:55;;;;;;;20.38;11.38;;;;;;;;;;4989958;28;20027;-73
2022/10/11 01:20:40;;;;;;;19.00;12.10;;;;;;;;;;4992895;28;20127;-73
2022/10/11 01:23:24;;;;;;;19.88;11.57;;;;;;;;;;5008167;28;20023;-73
2022/10/11 01:26:02;;;;;;;22.40;11.25;;;;;;;;;;4993600;28;20083;-73
2022/10/11 01:28:30;;;;;;;15.73;11.48;;;;;;;;;;5008599;28;20435;-72
2022/10/11 01:30:58;;;;;;;19.23;12.07;;;;;;;;;;4991821;28;20094;-73
2022/10/11 01:33:47;;;;;;;23.20;12.23;;;;;;;;;;4993881;28;20037;-72
2022/10/11 01:36:12;;;;;;;18.33;11.55;;;;;;;;;;4955245;28;20574;-73
2022/10/11 01:38:43;;;;;;;19.77;11.63;;;;;;;;;;4957048;28;20039;-73
2022/10/11 01:41:10;;;;;;;18.90;11.68;;;;;;;;;;4974015;28;20281;-72
2022/10/11 01:43:37;;;;;;;19.13;11.73;;;;;;;;;;4955257;28;20039;-73
2022/10/11 01:46:03;;;;;;;19.45;12.00;;;;;;;;;;4953932;28;20029;-73
2022/10/11 01:48:28;;;;;;;21.98;12.57;;;;;;;;;;4971484;28;20508;-73
2022/10/11 01:50:56;;;;;;;22.77;12.53;;;;;;;;;;4971399;28;20441;-73
2022/10/11 01:53:39;;;;;;;24.25;14.05;;;;;;;;;;4955037;28;20034;-73
2022/10/11 01:56:19;;;;;;;21.73;13.30;;;;;;;;;;4972077;28;20138;-73
2022/10/11 01:59:03;;;;;;;20.27;13.63;;;;;;;;;;4971489;28;20042;-73
2022/10/11 02:01:28;;;;;;;17.80;13.05;;;;;;;;;;4974389;28;20404;-73
2022/10/11 02:04:02;;;;;;;25.40;14.63;;;;;;;;;;4971496;28;20034;-74
2022/10/11 02:06:27;;;;;;;21.95;13.10;;;;;;;;;;4971341;28;20042;-73
2022/10/11 02:09:02;;;;;;;19.60;12.30;;;;;;;;;;4955598;28;20031;-72
2022/10/11 02:11:31;;;;;;;21.55;12.80;;;;;;;;;;4952926;28;20035;-73
2022/10/11 02:14:17;;;;;;;24.00;12.52;;;;;;;;;;5000203;28;20043;-73
2022/10/11 02:16:57;;;;;;;21.63;12.13;;;;;;;;;;4986566;28;20601;-72
2022/10/11 02:19:28;;;;;;;22.42;12.80;;;;;;;;;;4993189;28;20081;-72
2022/10/11 02:21:55;;;;;;;22.73;12.38;;;;;;;;;;4992336;28;20403;-73
2022/10/11 02:24:23;;;;;;;17.15;11.82;;;;;;;;;;4994914;28;20034;-74
2022/10/11 02:26:52;;;;;;;23.83;12.55;;;;;;;;;;4992816;28;20551;-73
2022/10/11 02:29:18;;;;;;;;;;;;;;;;;;4987590;28;20023;-72
2022/10/11 02:31:44;;;;;;;22.98;12.60;;;;;;;;;;4992916;28;19921;-73
2022/10/11 02:34:21;;;;;;;21.75;12.95;;;;;;;;;;4992357;28;20030;-73
2022/10/11 02:36:54;;;;;;;25.02;12.65;;;;;;;;;;4992304;28;20026;-72
2022/10/11 02:39:26;;;;;;;23.17;11.88;;;;;;;;;;4991563;28;20057;-72
2022/10/11 02:41:55;;;;;;;20.52;11.98;;;;;;;13.08;nan;101061.78;4992630;28;20479;-73
2022/10/11 02:44:23;;;;;;;23.85;12.02;;;;;;;;;;4992504;28;20022;-73
2022/10/11 02:46:49;;;;;;;18.83;12.60;;;;;;;;;;5007225;28;20515;-73
2022/10/11 02:49:15;;;;;;;21.63;13.00;;;;;;;;;;4992454;28;20105;-73
2022/10/11 02:51:40;;;;;;;18.27;11.90;;;;;;;;;;4991581;28;20037;-73
2022/10/11 02:54:05;;;;;;;19.90;12.45;;;;;;;;;;5008639;28;20058;-72
2022/10/11 02:56:31;;;;;;;24.60;12.65;;;;;;;;;;4993727;28;20030;-73
2022/10/11 02:58:56;;;;;;;17.27;11.93;;;;;;;;;;4996091;28;20384;-73
2022/10/11 03:01:21;;;;;;;40.20;13.20;;;;;;;;;;4991677;28;20078;-72
2022/10/11 03:03:47;;;;;;;19.73;12.70;;;;;;;;;;4996036;28;20264;-73
2022/10/11 03:06:12;;;;;;;24.15;13.07;;;;;;;;;;4994910;28;20288;-72
2022/10/11 03:08:37;;;;;;;19.85;12.02;;;;;;;;;;4996621;28;20030;-73
2022/10/11 03:11:02;;;;;;;23.40;13.32;;;;;;;;;;4995902;28;20052;-73
2022/10/11 03:13:28;;;;;;;24.63;13.07;;;;;;;;;;4994461;28;20034;-72
2022/10/11 03:15:53;;;;;;;19.33;12.10;;;;;;;;;;4995109;28;20363;-73
2022/10/11 03:18:19;;;;;;;17.67;12.57;;;;;;;;;;4996047;28;20033;-73
2022/10/11 03:20:44;;;;;;;19.80;11.98;;;;;;;;;;4996235;28;20537;-73
2022/10/11 03:23:09;;;;;;;19.50;12.07;;;;;;;;;;4997171;28;20040;-73
2022/10/11 03:25:35;;;;;;;21.05;12.27;;;;;;;;;;4996319;28;20295;-73
2022/10/11 03:28:00;;;;;;;19.85;12.02;;;;;;;;;;4994633;28;20030;-73
2022/10/11 03:30:25;;;;;;;25.43;11.77;;;;;;;;;;4993310;28;20086;-73
2022/10/11 03:32:51;;;;;;;23.23;12.68;;;;;;;;;;5007222;28;20284;-72
2022/10/11 03:35:16;;;;;;;20.07;11.47;;;;;;;;;;4993384;28;20440;-73
2022/10/11 03:37:41;;;;;;;19.08;12.43;;;;;;;;;;4994432;28;20283;-71
2022/10/11 03:40:07;;;;;;;20.83;11.80;;;;;;;;;;4995043;28;20053;-73
2022/10/11 03:42:33;;;;;;;20.25;11.85;;;;;;;;;;4977231;28;20340;-73
2022/10/11 03:45:03;;;;;;;20.92;11.80;;;;;;;;;;4994955;28;20065;-73
2022/10/11 03:47:28;;;;;;;21.98;11.73;;;;;;;;;;4995019;28;20073;-73
2022/10/11 03:49:53;;;;;;;21.00;11.87;;;;;;;;;;4976253;28;20077;-73
2022/10/11 03:52:19;;;;;;;24.95;12.98;;;;;;;;;;4994733;28;20034;-73
2022/10/11 03:54:44;;;;;;;19.10;12.07;;;;;;;;;;5008100;28;20034;-73
2022/10/11 03:57:09;;;;;;;20.03;11.50;;;;;;;;;;4994716;28;20339;-73
2022/10/11 03:59:35;;;;;;;27.20;12.15;;;;;;;;;;4995348;28;20072;-72
2022/10/11 04:02:00;;;;;;;20.10;12.00;;;;;;;;;;4991166;28;20026;-74
2022/10/11 04:04:25;;;;;;;24.10;11.63;;;;;;;;;;4993823;28;20018;-73
2022/10/11 04:06:50;;;;;;;20.52;11.52;;;;;;;;;;4993127;28;20334;-72
2022/10/11 04:09:16;;;;;;;22.93;11.40;;;;;;;;;;5009458;28;20045;-73
2022/10/11 04:11:41;;;;;;;20.20;11.73;;;;;;;;;;4994217;28;20339;-71
2022/10/11 04:14:06;;;;;;;20.00;11.87;;;;;;;;;;4995255;28;20428;-72
2022/10/11 04:16:34;;;;;;;18.85;11.57;;;;;;;;;;4986691;28;20050;-72
2022/10/11 04:18:59;;;;;;;23.63;11.23;;;;;;;;;;4991878;28;20032;-72
2022/10/11 04:21:24;;;;;;;20.37;11.27;;;;;;;;;;4993175;28;20089;-71
2022/10/11 04:23:49;;;;;;;24.70;11.07;;;;;;;;;;4993283;28;20076;-71
2022/10/11 04:26:15;;;;;;;22.38;11.32;;;;;;;;;;4992983;28;20080;-71
2022/10/11 04:28:40;;;;;;;21.37;11.80;;;;;;;;;;4993294;28;20535;-73
2022/10/11 04:31:06;;;;;;;18.27;11.20;;;;;;;;;;4991450;28;20280;-72
2022/10/11 04:33:32;;;;;;;20.65;11.18;;;;;;;;;;4992533;28;20201;-71
2022/10/11 04:35:57;;;;;;;23.02;11.20;;;;;;;;;;4987282;28;20069;-71
2022/10/11 04:38:22;;;;;;;23.67;11.37;;;;;;;;;;4991122;28;20536;-72
2022/10/11 04:40:48;;;;;;;23.63;11.50;;;;;;;;;;4991208;28;20272;-72
2022/10/11 04:43:15;;;;;;;21.67;11.87;;;;;;;;;;4992879;28;20018;-72
2022/10/11 04:45:41;;;;;;;23.45;11.30;;;;;;;;;;4991257;28;20279;-72
2022/10/11 04:48:06;;;;;;;19.85;12.43;;;;;;;;;;4991884;28;20029;-71
2022/10/11 04:50:32;;;;;;;21.08;12.13;;;;;;;;;;4988667;28;20042;-67
2022/10/11 04:52:57;;;;;;;22.60;11.90;;;;;;;;;;4990484;28;20045;-68
2022/10/11 04:55:22;;;;;;;26.50;12.35;;;;;;;;;;4991134;28;20110;-69
2022/10/11 04:57:48;;;;;;;28.50;12.80;;;;;;;;;;5006004;28;20077;-69
2022/10/11 05:00:13;;;;;;;27.63;12.30;;;;;;;;;;4990638;28;20030;-70
2022/10/11 05:02:38;;;;;;;25.13;12.68;;;;;;;;;;4992672;28;20041;-70
2022/10/11 05:05:04;;;;;;;27.57;12.80;;;;;;;;;;4991677;28;20112;-71
2022/10/11 05:07:29;;;;;;;29.52;13.10;;;;;;;;;;5004532;28;20294;-71
2022/10/11 05:09:54;;;;;;;31.10;13.57;;;;;;;;;;4989421;28;20019;-73
2022/10/11 05:12:20;;;;;;;22.77;12.57;;;;;;;;;;4989594;28;20765;-73
2022/10/11 05:14:45;;;;;;;24.45;12.20;;;;;;;;;;4987134;28;20046;-73
2022/10/11 05:17:11;;;;;;;31.75;13.00;;;;;;;;;;4991716;28;20034;-73
2022/10/11 05:19:36;;;;;;;25.85;13.40;;;;;;;;;;4991561;28;20027;-74
2022/10/11 05:22:01;;;;;;;24.30;13.05;;;;;;;;;;5007537;28;20034;-69
2022/10/11 05:24:26;;;;;;;19.67;11.88;;;;;;;;;;4988068;28;20421;-69
2022/10/11 05:26:52;;;;;;;22.70;13.67;;;;;;;;;;4990414;28;20030;-69
2022/10/11 05:29:17;;;;;;;31.38;13.00;;;;;;;;;;4989462;28;20272;-73
2022/10/11 05:31:43;;;;;;;28.45;12.93;;;;;;;;;;4990043;28;20092;-72
2022/10/11 05:34:08;;;;;;;27.55;12.90;;;;;;;;;;4988783;28;20432;-73
2022/10/11 05:36:33;;;;;;;28.02;13.27;;;;;;;;;;4990370;28;20233;-69
2022/10/11 05:38:58;;;;;;;19.73;12.77;;;;;;;;;;4990018;28;20593;-69
2022/10/11 05:41:24;;;;;;;29.37;14.07;;;;;;;;;;4989030;28;20787;-69
2022/10/11 05:43:49;;;;;;;29.15;13.77;;;;;;;;;;4988858;28;20061;-69
2022/10/11 05:46:14;;;;;;;27.30;14.30;;;;;;;;;;4989813;28;20081;-68
2022/10/11 05:48:40;;;;;;;27.30;14.43;;;;;;;;;;4991020;28;20862;-68
2022/10/11 05:51:06;;;;;;;33.88;13.85;;;;;;;;;;4989863;28;20026;-69
2022/10/11 05:53:32;;;;;;;34.75;14.13;;;;;;;;;;4989622;28;20022;-69
2022/10/11 05:55:58;;;;;;;30.33;14.07;;;;;;;;;;4989327;28;20019;-73
2022/10/11 05:58:23;;;;;;;32.60;14.32;;;;;;;;;;4991132;28;20498;-73
2022/10/11 06:00:49;;;;;;;30.17;15.35;;;;;;;;;;4998532;28;20022;-73
2022/10/11 06:03:14;;;;;;;31.35;14.50;;;;;;;;;;4993395;28;20101;-73
2022/10/11 06:05:40;;;;;;;32.13;15.00;;;;;;;;;;4989752;28;20024;-73
2022/10/11 06:08:07;;;;;;;34.35;15.40;;;;;;;;;;4999048;28;20058;-75
2022/10/11 06:10:33;;;;;;;33.03;14.73;;;;;;;;;;4988985;28;20099;-75
2022/10/11 06:12:58;;;;;;;32.53;14.43;;;;;;;;;;4989682;28;20042;-74
2022/10/11 06:15:24;;;;;;;37.90;14.63;;;;;;;;;;4989112;28;20058;-75
2022/10/11 06:17:49;;;;;;;25.52;14.63;;;;;;;;;;4990349;28;20354;-72
2022/10/11 06:20:15;;;;;;;33.53;14.93;;;;;;;;;;4990410;28;20027;-74
2022/10/11 06:22:40;;;;;;;28.92;14.13;;;;;;;;;;4988674;28;20100;-74
2022/10/11 06:25:06;;;;;;;32.33;14.07;;;;;;;;;;4987416;28;20030;-74
2022/10/11 06:27:31;;;;;;;25.67;13.13;;;;;;;;;;4991730;28;20769;-74
2022/10/11 06:29:56;;;;;;;22.67;12.93;;;;;;;;;;4973297;28;20062;-74
2022/10/11 06:32:21;;;;;;;30.83;13.77;;;;;;;;;;4993853;28;20092;-72
2022/10/11 06:34:47;;;;;;;25.88;13.20;;;;;;;;;;4995366;28;20018;-73
2022/10/11 06:37:12;;;;;;;23.05;13.32;;;;;;;;;;5010633;28;20042;-74
2022/10/11 06:39:38;;;;;;;23.90;12.85;;;;;;;;;;4994935;28;20018;-74
2022/10/11 06:42:03;;;;;;;23.17;12.73;;;;;;;;;;4996132;28;20117;-71
2022/10/11 06:44:28;;;;;;;23.25;13.23;;;;;;;;;;5008499;28;20276;-74
2022/10/11 06:46:54;;;;;;;31.15;13.85;;;;;;;;;;4995225;28;20498;-74
2022/10/11 06:49:19;;;;;;;28.83;14.55;;;;;;;;;;4977491;28;20032;-69
2022/10/11 06:51:45;;;;;;;26.20;12.63;;;;;;;;;;4995406;28;20038;-74
2022/10/11 06:54:10;;;;;;;24.77;12.77;;;;;;;;;;5009863;28;20050;-74
2022/10/11 06:56:35;;;;;;;22.40;11.18;;;;;;;;;;5003751;28;20050;-74
2022/10/11 06:59:02;;;;;;;23.35;11.68;;;;;;;;;;5009755;28;20511;-74
2022/10/11 07:01:27;;;;;;;22.38;12.40;;;;;;;;;;5012215;28;20361;-73
2022/10/11 07:03:54;;;;;;;21.50;11.90;;;;;;;;;;4995060;28;20069;-71
2022/10/11 07:06:20;;;;;;;25.13;11.07;;;;;;;;;;4991338;28;20284;-73
2022/10/11 07:08:46;;;;;;;21.27;11.13;;;;;;;;;;4994397;28;20026;-74
2022/10/11 07:11:16;;;;;;;30.38;10.88;;;;;;;;;;4990800;28;20042;-74
2022/10/11 07:13:41;;;;;;;22.10;11.50;;;;;;;;;;4995153;28;20492;-74
2022/10/11 07:16:08;;;;;;;21.08;10.30;;;;;;;;;;4979912;28;20107;-75
2022/10/11 07:18:34;;;;;;;34.58;12.02;;;;;;;;;;4995512;28;20081;-74
2022/10/11 07:21:06;;;;;;;23.52;11.50;;;;;;;;;;4995041;28;20420;-72
2022/10/11 07:23:32;;;;;;;19.45;11.15;;;;;;;;;;4993687;28;20030;-74
2022/10/11 07:25:57;;;;;;;21.95;10.65;;;;;;;;;;4991275;28;20038;-74
2022/10/11 07:28:23;;;;;;;20.13;10.98;;;;;;;;;;4991377;28;20057;-74
2022/10/11 07:30:48;;;;;;;21.00;10.20;;;;;;;;;;4995265;28;20029;-69
2022/10/11 07:33:13;;;;;;;23.57;11.03;;;;;;;;;;4994704;28;20392;-74
2022/10/11 07:35:39;;;;;;;17.38;10.10;;;;;;;;;;5005485;28;20036;-69
2022/10/11 07:38:04;;;;;;;19.83;11.10;;;;;;;;;;5009104;28;20030;-74
2022/10/11 07:40:31;;;;;;;15.52;9.55;;;;;;;;;;5000319;28;20284;-74
2022/10/11 07:42:57;;;;;;;24.10;9.85;;;;;;;;;;4993541;28;20018;-74
2022/10/11 07:45:23;;;;;;;27.43;10.17;;;;;;;;;;4994327;28;20120;-74
2022/10/11 07:47:48;;;;;;;19.15;10.52;;;;;;;;;;4992232;28;20080;-74
2022/10/11 07:50:13;;;;;;;15.50;10.10;;;;;;;;;;4991253;28;20518;-74
2022/10/11 07:52:39;;;;;;;20.37;10.70;;;;;;;;;;5008987;28;20030;-74
2022/10/11 07:55:05;;;;;;;17.52;10.18;;;;;;;14.79;nan;101161.63;4994798;28;20282;-74
2022/10/11 07:57:30;;;;;;;20.27;10.95;;;;;;;;;;4981748;28;20018;-74
2022/10/11 07:59:55;;;;;;;21.63;11.10;;;;;;;;;;4995376;28;20431;-74
2022/10/11 08:02:21;;;;;;;22.80;11.10;;;;;;;;;;4991284;28;20042;-74
2022/10/11 08:04:46;;;;;;;20.77;10.75;;;;;;;;;;4993939;28;20038;-74
2022/10/11 08:07:11;;;;;;;19.47;10.73;;;;;;;;;;4992194;28;20503;-74
2022/10/11 08:09:36;;;;;;;22.73;10.73;;;;;;;;;;4993607;28;20318;-72
2022/10/11 08:12:02;;;;;;;23.13;11.33;;;;;;;;;;4993518;28;20030;-73
2022/10/11 08:14:27;;;;;;;21.65;10.07;;;;;;;;;;4995542;28;20611;-73
2022/10/11 08:16:52;;;;;;;17.37;10.23;;;;;;;;;;4992308;28;20072;-73
2022/10/11 08:19:18;;;;;;;20.93;11.33;;;;;;;;;;4993996;28;20030;-73
2022/10/11 08:21:43;;;;;;;18.33;10.80;;;;;;;;;;4991696;28;20031;-73
2022/10/11 08:24:12;;;;;;;21.30;10.90;;;;;;;;;;4991076;28;20027;-71
2022/10/11 08:26:38;;;;;;;16.85;9.90;;;;;;;;;;4992945;28;20033;-73
2022/10/11 08:29:04;;;;;;;24.00;10.40;;;;;;;;;;4989527;28;20026;-73
2022/10/11 08:31:29;;;;;;;21.80;10.70;;;;;;;;;;4992739;28;20515;-73
2022/10/11 08:33:55;;;;;;;18.23;10.50;;;;;;;;;;4993330;28;20022;-73
2022/10/11 08:36:20;;;;;;;19.93;10.87;;;;;;;;;;4992508;28;20035;-69
2022/10/11 08:38:45;;;;;;;16.23;9.90;;;;;;;;;;4992232;28;20376;-69
2022/10/11 08:41:13;;;;;;;20.38;10.45;;;;;;;;;;5008699;28;20030;-73
2022/10/11 08:43:45;;;;;;;20.77;9.93;;;;;;;;;;4989572;28;20117;-72
2022/10/11 08:46:12;;;;;;;28.45;9.93;;;;;;;;;;4991087;28;20030;-73
2022/10/11 08:48:40;;;;;;;31.23;10.52;;;;;;;;;;4989184;28;20085;-69
2022/10/11 08:51:24;;;;;;;18.40;10.32;;;;;;;;;;4992652;28;20025;-69
2022/10/11 08:53:54;;;;;;;21.15;10.52;;;;;;;;;;4989310;28;20388;-67
2022/10/11 08:56:20;;;;;;;20.13;10.18;;;;;;;;;;4992410;28;20041;-71
2022/10/11 08:58:47;;;;;;;22.20;10.52;;;;;;;;;;4992265;28;20084;-69
2022/10/11 09:01:15;;;;;;;25.08;10.60;;;;;;;;;;4992448;28;20378;-68
2022/10/11 09:03:41;;;;;;;18.52;10.38;;;;;;;;;;4991617;28;20483;-68
2022/10/11 09:06:24;;;;;;;26.45;11.15;;;;;;;;;;4991688;28;20034;-68
2022/10/11 09:09:04;;;;;;;18.35;10.32;;;;;;;;;;5006186;28;20033;-69
2022/10/11 09:11:29;;;;;;;21.05;11.32;;;;;;;;;;4988244;28;20112;-67
2022/10/11 09:14:06;;;;;;;21.80;10.77;;;;;;;;;;5007880;28;20109;-68
2022/10/11 09:16:34;;;;;;;19.92;10.38;;;;;;;;;;4991714;28;20041;-68
2022/10/11 09:19:17;;;;;;;20.65;10.20;;;;;;;;;;5007423;28;20038;-67
2022/10/11 09:22:06;;;;;;;17.30;10.02;;;;;;;;;;4989346;28;20030;-68
2022/10/11 09:24:46;;;;;;;20.75;10.45;;;;;;;;;;4990819;28;20030;-68
2022/10/11 09:27:24;;;;;;;22.40;10.23;;;;;;;;;;4991788;28;20370;-68
2022/10/11 09:29:56;;;;;;;14.00;9.40;;;;;;;;;;4990540;28;20117;-69
2022/10/11 09:32:22;;;;;;;20.80;10.68;;;;;;;;;;4990193;28;20033;-70
2022/10/11 09:34:54;;;;;;;16.88;11.10;;;;;;;;;;4991453;28;20496;-70
2022/10/11 09:37:23;;;;;;;24.55;10.13;;;;;;;;;;4991429;28;20030;-68
2022/10/11 09:39:54;;;;;;;20.55;10.60;;;;;;;;;;4991293;28;20026;-68
2022/10/11 09:42:20;;;;;;;24.90;10.38;;;;;;;16.48;nan;101130.75;4990923;28;20105;-70
2022/10/11 09:44:46;;;;;;;21.85;11.30;;;;;;;;;;4991669;28;20105;-70
2022/10/11 09:47:17;;;;;;;21.73;10.20;;;;;;;;;;4991569;28;20484;-70
2022/10/11 09:49:49;;;;;;;16.90;10.10;;;;;;;;;;4991692;28;20026;-69
2022/10/11 09:52:16;;;;;;;23.85;10.45;;;;;;;;;;4984390;28;20062;-67
2022/10/11 09:54:43;;;;;;;21.95;10.60;;;;;;;;;;4988577;28;20129;-69
2022/10/11 09:57:19;;;;;;;19.83;10.05;;;;;;;;;;5000013;28;20038;-68
2022/10/11 09:59:55;;;;;;;17.23;9.30;;;;;;;;;;4986774;28;20472;-70
2022/10/11 10:02:21;;;;;;;19.77;10.52;;;;;;;;;;4995741;28;20025;-69
2022/10/11 10:05:05;;;;;;;19.38;9.82;;;;;;;;;;4991733;28;20392;-68
2022/10/11 10:07:31;;;;;;;22.92;10.00;;;;;;;;;;4987602;28;20026;-68
2022/10/11 10:09:57;;;;;;;19.30;10.45;;;;;;;;;;4990397;28;20032;-69
2022/10/11 10:12:29;;;;;;;16.65;9.27;;;;;;;;;;4986570;28;20034;-69
2022/10/11 10:15:03;;;;;;;15.65;9.10;;;;;;;;;;4986223;28;20058;-69
2022/10/11 10:17:29;;;;;;;22.67;10.20;;;;;;;;;;4986854;28;20069;-72
2022/10/11 10:19:55;;;;;;;20.73;9.48;;;;;;;;;;4984531;28;20520;-72
2022/10/11 10:22:26;;;;;;;22.98;10.27;;;;;;;;;;4987692;28;20495;-71
2022/10/11 10:24:52;;;;;;;17.38;9.00;;;;;;;;;;4984583;28;20488;-72
2022/10/11 10:27:20;;;;;;;16.70;8.85;;;;;;;;;;4981868;28;20027;-72
2022/10/11 10:30:04;;;;;;;16.10;8.52;;;;;;;;;;4982445;28;20380;-74
2022/10/11 10:32:45;;;;;;;15.43;8.50;;;;;;;;;;4986134;28;20038;-71
2022/10/11 10:35:31;;;;;;;17.67;8.73;;;;;;;;;;4987485;28;20125;-72
2022/10/11 10:38:07;;;;;;;19.95;9.13;;;;;;;;;;4987571;28;20097;-71
2022/10/11 10:40:39;;;;;;;15.93;8.73;;;;;;;;;;4988572;28;20538;-72
2022/10/11 10:43:04;;;;;;;15.23;9.00;;;;;;;;;;4985294;28;20033;-72
2022/10/11 10:45:43;;;;;;;18.23;9.02;;;;;;;;;;4982787;28;20030;-72
2022/10/11 10:48:14;;;;;;;19.58;9.00;;;;;;;;;;4982720;28;20626;-72
2022/10/11 10:50:53;;;;;;;17.13;8.63;;;;;;;;;;4983844;28;20157;-72
2022/10/11 10:53:25;;;;;;;17.42;8.77;;;;;;;;;;4989664;28;20113;-70
2022/10/11 10:55:59;;;;;;;18.75;10.23;;;;;;;;;;4989338;28;21303;-73
2022/10/11 10:58:56;;;;;;;15.40;8.73;;;;;;;18.02;nan;101093.16;4985543;28;20023;-73
2022/10/11 11:01:26;;;;;;;20.55;8.88;;;;;;;;;;4987946;28;20589;-72
2022/10/11 11:04:10;;;;;;;18.65;9.77;;;;;;;;;;4986712;28;20552;-72
2022/10/11 11:06:52;;;;;;;14.15;9.10;;;;;;;18.25;nan;101102.63;4987123;28;20124;-72
2022/10/11 11:09:17;;;;;;;24.98;9.07;;;;;;;;;;4982759;28;20067;-72
2022/10/11 11:11:43;;;;;;;25.37;8.93;;;;;;;;;;4985663;28;20018;-72
2022/10/11 11:14:17;;;;;;;17.60;9.50;;;;;;;;;;4988161;28;20041;-72
2022/10/11 11:16:54;;;;;;;18.35;9.07;;;;;;;;;;4990367;28;20129;-72
2022/10/11 11:19:22;;;;;;;13.43;8.48;;;;;;;;;;4992932;28;20104;-72
2022/10/11 11:22:05;;;;;;;14.98;8.45;;;;;;;;;;4989433;28;20026;-72
2022/10/11 11:24:45;;;;;;;18.60;8.40;;;;;;;18.72;nan;101079.59;4992451;28;20153;-72
2022/10/11 11:27:29;;;;;;;14.90;8.07;;;;;;;18.82;nan;101093.00;4992610;28;20034;-72
2022/10/11 11:30:03;;;;;;;15.80;8.38;;;;;;;18.91;nan;101096.78;4992017;28;20097;-72
2022/10/11 11:32:40;;;;;;;15.32;7.80;;;;;;;19.02;nan;101084.25;4990231;28;20030;-73
2022/10/11 11:35:13;;;;;;;17.83;7.68;;;;;;;;;;5005546;28;20026;-72
2022/10/11 11:37:42;;;;;;;11.77;7.50;;;;;;;19.17;nan;101079.97;4990951;28;20177;-72
2022/10/11 11:40:36;;;;;;;16.80;8.40;;;;;;;19.25;nan;101069.59;4994061;28;20048;-72
2022/10/11 11:43:33;;;;;;;15.27;7.95;;;;;;;19.30;nan;101076.81;4992696;28;20022;-72
2022/10/11 11:46:05;;;;;;;18.77;7.30;;;;;;;19.42;nan;101068.50;4993216;28;20547;-74
2022/10/11 11:48:31;;;;;;;14.18;7.32;;;;;;;19.47;nan;101140.66;4992126;28;20073;-72
2022/10/11 11:51:02;;;;;;;13.40;7.60;;;;;;;19.52;nan;101058.63;4985158;28;20021;-72
2022/10/11 11:53:46;;;;;;;13.18;7.20;;;;;;;19.60;nan;101054.59;4992852;28;20045;-72
2022/10/11 11:56:37;;;;;;;11.98;7.40;;;;;;;19.69;nan;101071.72;4993121;28;20049;-73
2022/10/11 11:59:20;;;;;;;15.30;7.32;;;;;;;19.79;nan;101070.13;4989810;28;20058;-68
2022/10/11 12:02:23;;;;;;;16.52;7.28;;;;;;;19.87;nan;101074.91;4990093;28;20153;-68
2022/10/11 12:04:50;;;;;;;9.70;6.53;;;;;;;19.93;nan;101037.19;4990110;28;20121;-68
2022/10/11 12:07:18;;;;;;;12.40;6.53;;;;;;;20.05;nan;101055.63;4991018;28;20057;-73
2022/10/11 12:10:12;;;;;;;11.35;6.40;;;;;;;20.12;nan;101069.50;4996312;28;20033;-73
2022/10/11 12:12:38;;;;;;;15.85;6.78;;;;;;;20.15;nan;101047.56;4993608;28;20034;-73
2022/10/11 12:15:53;;;;;;;13.68;6.43;;;;;;;20.21;nan;101031.47;4991852;28;20044;-74
2022/10/11 12:18:19;;;;;;;10.05;6.15;;;;;;;;;;4936152;29;20482;-73
2022/10/11 12:20:45;;;;;;;15.15;6.35;;;;;;;20.14;nan;101037.16;4934611;29;20114;-73
2022/10/11 12:23:28;;;;;;;10.30;6.75;;;;;;;20.24;nan;101049.69;4955151;28;20156;-73
2022/10/11 12:26:27;;;;;;;9.38;6.28;;;;;;;20.35;nan;101064.59;4953330;28;20049;-73
2022/10/11 12:29:14;;;;;;;12.38;6.18;;;;;;;20.45;nan;101055.72;4946638;28;20060;-73
2022/10/11 12:31:40;;;;;;;14.63;6.82;;;;;;;20.51;nan;101039.38;4950987;28;20034;-73
2022/10/11 12:34:08;;;;;;;12.13;6.85;;;;;;;20.58;nan;101042.56;4949093;28;20114;-73
2022/10/11 12:36:36;;;;;;;11.90;6.28;;;;;;;20.66;nan;101051.09;4939427;28;20026;-73
2022/10/11 12:39:19;;;;;;;9.32;5.90;;;;;;;20.70;nan;101052.16;4952365;28;20039;-73
2022/10/11 12:41:52;;;;;;;8.32;5.90;;;;;;;20.71;nan;101062.59;4950746;29;20023;-73
2022/10/11 12:44:17;;;;;;;11.65;6.38;;;;;;;20.71;nan;101049.22;4953569;28;20024;-73
2022/10/11 12:46:56;;;;;;;10.07;5.78;;;;;;;20.75;nan;101054.78;4953046;28;20087;-73
2022/10/11 12:49:46;;;;;;;13.90;6.05;;;;;;;20.75;nan;101041.41;4952899;28;20071;-73
2022/10/11 12:52:14;;;;;;;7.68;5.80;;;;;;;20.81;nan;101040.31;4973968;28;20038;-73
2022/10/11 12:55:04;;;;;;;13.80;6.50;;;;;;;20.86;nan;101016.19;4992665;28;20026;-73
2022/10/11 12:58:02;;;;;;;11.77;5.80;;;;;;;20.91;nan;101048.28;4990897;28;20029;-73
2022/10/11 13:00:32;;;;;;;9.15;5.80;;;;;;;20.85;nan;101038.66;4987724;28;20022;-73
2022/10/11 13:03:01;;;;;;;14.73;7.00;;;;;;;20.71;nan;101041.19;5002089;28;20022;-72
2022/10/11 13:05:42;;;;;;;13.38;6.80;;;;;;;;;;4990183;28;20037;-73
2022/10/11 13:08:14;;;;;;;13.07;6.22;;;;;;;20.73;nan;101067.66;4990300;28;20066;-72
2022/10/11 13:10:44;;;;;;;13.50;6.93;;;;;;;20.80;nan;101039.50;5005190;28;20053;-72
2022/10/11 13:13:21;;;;;;;12.35;6.07;;;;;;;20.81;nan;101045.69;4989762;28;20045;-72
2022/10/11 13:15:47;;;;;;;8.85;6.43;;;;;;;20.74;nan;101078.09;4990146;28;20054;-72
2022/10/11 13:18:14;;;;;;;13.45;6.72;;;;;;;20.82;nan;101037.34;4986711;28;20547;-72
2022/10/11 13:20:40;;;;;;;14.90;6.90;;;;;;;20.82;nan;101045.38;4989789;28;20057;-73
2022/10/11 13:23:24;;;;;;;11.25;6.85;;;;;;;20.84;nan;101042.44;4992875;28;20022;-74
2022/10/11 13:25:51;;;;;;;15.05;6.55;;;;;;;20.79;nan;101080.75;4987261;28;20058;-73
2022/10/11 13:28:17;;;;;;;9.40;6.20;;;;;;;20.87;nan;101039.19;4983018;28;20030;-73
2022/10/11 13:30:47;;;;;;;12.73;6.72;;;;;;;20.79;nan;101015.69;4989607;28;20117;-72
2022/10/11 13:33:30;;;;;;;8.95;6.68;;;;;;;20.82;nan;101029.31;4990024;28;20109;-72
2022/10/11 13:35:57;;;;;;;16.48;6.68;;;;;;;20.82;nan;101106.94;4989796;28;20022;-72
2022/10/11 13:38:26;;;;;;;15.30;6.60;;;;;;;20.86;nan;101042.97;5004828;28;20073;-72
2022/10/11 13:40:51;;;;;;;12.32;6.70;;;;;;;20.87;nan;101035.72;4987514;28;20030;-72
2022/10/11 13:43:23;;;;;;;13.15;6.72;;;;;;;20.90;nan;101052.03;4989157;28;20037;-72
2022/10/11 13:45:49;;;;;;;17.80;8.25;;;;;;;20.90;nan;101049.38;4991055;28;20480;-72
2022/10/11 13:48:15;;;;;;;12.13;6.95;;;;;;;20.90;nan;101046.69;4990649;28;20033;-71
2022/10/11 13:50:51;;;;;;;14.05;7.50;;;;;;;20.94;nan;101046.91;4991482;28;20403;-72
2022/10/11 13:53:16;;;;;;;17.27;7.40;;;;;;;20.97;nan;101038.31;4994231;28;20022;-72
2022/10/11 13:55:41;;;;;;;13.57;7.35;;;;;;;20.97;nan;101041.00;4989860;28;20030;-72
2022/10/11 13:58:39;;;;;;;13.00;8.25;;;;;;;20.95;nan;101046.66;4988150;28;20038;-72